createdAt,value
2019-01-19T00:02:45.876Z,76.69
2019-01-19T00:05:47.584Z,76.84
2019-01-19T00:08:47.251Z,77.17
2019-01-19T00:11:56.997Z,77.52
2019-01-19T00:14:33.872Z,77.68
2019-01-19T00:17:44.721Z,77.83
2019-01-19T00:20:50.431Z,78.05
2019-01-19T00:23:52.892Z,78.17
2019-01-19T00:26:51.035Z,78.20
2019-01-19T00:29:51.815Z,78.22
2019-01-19T00:32:50.873Z,78.13
2019-01-19T00:36:17.411Z,78.08
2019-01-19T00:39:39.333Z,78.02
2019-01-19T00:42:27.452Z,77.86
2019-01-19T00:45:37.376Z,77.79
2019-01-19T00:48:38.007Z,77.76
2019-01-19T00:51:39.873Z,77.71
2019-01-19T00:54:23.264Z,77.54
2019-01-19T00:57:30.375Z,77.59
2019-01-19T01:00:05.697Z,77.65
2019-01-19T01:03:18.829Z,77.66
2019-01-19T01:06:22.977Z,77.71
2019-01-19T01:09:17.497Z,77.81
2019-01-19T01:12:30.090Z,77.95
2019-01-19T01:15:19.871Z,77.99
2019-01-19T01:18:03.312Z,78.02
2019-01-19T01:21:07.396Z,77.95
2019-01-19T01:24:03.525Z,77.83
2019-01-19T01:27:08.037Z,77.61
2019-01-19T01:30:22.044Z,77.41
2019-01-19T01:33:04.284Z,77.33
2019-01-19T01:36:22.897Z,77.42
2019-01-19T01:39:14.365Z,77.63
2019-01-19T01:42:55.315Z,77.64
2019-01-19T01:45:58.003Z,77.64
2019-01-19T01:48:49.824Z,77.31
2019-01-19T01:51:53.855Z,77.21
2019-01-19T01:55:10.301Z,77.23
2019-01-19T01:58:10.113Z,77.16
2019-01-19T02:01:16.588Z,77.19
2019-01-19T02:04:17.248Z,77.27
2019-01-19T02:07:24.366Z,77.28
2019-01-19T02:10:13.152Z,77.31
2019-01-19T02:13:26.240Z,77.42
2019-01-19T02:16:43.103Z,77.28
2019-01-19T02:19:28.457Z,77.17
2019-01-19T02:22:12.792Z,77.32
2019-01-19T02:25:24.290Z,77.53
2019-01-19T02:28:20.355Z,77.77
2019-01-19T02:31:27.046Z,77.92
2019-01-19T02:34:59.657Z,78.09
2019-01-19T02:38:09.324Z,78.11
2019-01-19T02:41:02.274Z,77.98
2019-01-19T02:43:58.549Z,77.95
2019-01-19T02:46:50.284Z,77.92
2019-01-19T02:50:00.365Z,77.92
2019-01-19T02:52:58.786Z,77.93
2019-01-19T02:56:05.529Z,78.04
2019-01-19T02:59:15.314Z,78.03
2019-01-19T03:02:17.085Z,77.96
2019-01-19T03:05:12.610Z,77.85
2019-01-19T03:07:52.188Z,77.81
2019-01-19T03:11:11.905Z,77.91
2019-01-19T03:13:56.293Z,77.88
2019-01-19T03:16:57.965Z,77.85
2019-01-19T03:19:41.736Z,77.81
2019-01-19T03:22:30.010Z,77.91
2019-01-19T03:25:29.577Z,77.94
2019-01-19T03:28:19.708Z,77.91
2019-01-19T03:31:18.595Z,77.93
2019-01-19T03:34:20.317Z,77.86
2019-01-19T03:37:14.333Z,77.85
2019-01-19T03:40:09.813Z,77.78
2019-01-19T03:43:25.251Z,77.71
2019-01-19T03:46:14.836Z,77.56
2019-01-19T03:49:23.982Z,77.42
2019-01-19T03:52:16.580Z,77.30
2019-01-19T03:55:14.533Z,77.07
2019-01-19T03:57:54.173Z,77.00
2019-01-19T04:01:03.345Z,76.81
2019-01-19T04:03:53.501Z,76.76
2019-01-19T04:06:42.042Z,76.85
2019-01-19T04:09:48.460Z,76.85
2019-01-19T04:12:57.637Z,76.81
2019-01-19T04:15:48.324Z,76.60
2019-01-19T04:18:34.768Z,76.37
2019-01-19T04:21:44.611Z,76.24
2019-01-19T04:24:42.256Z,76.11
2019-01-19T04:27:11.920Z,75.94
2019-01-19T04:29:41.605Z,75.89
2019-01-19T04:32:11.418Z,75.88
2019-01-19T04:34:41.416Z,75.94
2019-01-19T04:37:11.253Z,75.93
2019-01-19T04:39:41.233Z,75.92
2019-01-19T04:42:11.661Z,75.83
2019-01-19T04:44:41.654Z,75.73
2019-01-19T04:47:11.599Z,75.66
2019-01-19T04:49:41.282Z,75.59
2019-01-19T04:52:10.942Z,75.61
2019-01-19T04:54:40.651Z,75.67
2019-01-19T04:57:10.562Z,75.72
2019-01-19T04:59:40.304Z,75.72
2019-01-19T05:02:10.055Z,75.68
2019-01-19T05:04:39.974Z,75.74
2019-01-19T05:07:09.912Z,75.86
2019-01-19T05:09:39.819Z,75.82
2019-01-19T05:12:09.734Z,75.86
2019-01-19T05:14:39.664Z,75.86
2019-01-19T05:17:09.634Z,75.89
2019-01-19T05:19:41.224Z,76.02
2019-01-19T05:22:10.915Z,76.26
2019-01-19T05:24:40.833Z,76.37
2019-01-19T05:27:10.504Z,76.29
2019-01-19T05:29:40.354Z,76.16
2019-01-19T05:32:11.538Z,76.04
2019-01-19T05:34:41.931Z,75.93
2019-01-19T05:37:11.625Z,75.82
2019-01-19T05:39:41.380Z,75.77
2019-01-19T05:42:11.041Z,75.80
2019-01-19T05:44:40.743Z,75.79
2019-01-19T05:47:10.667Z,75.71
2019-01-19T05:49:40.729Z,75.66
2019-01-19T05:52:10.502Z,75.68
2019-01-19T05:54:40.411Z,75.69
2019-01-19T05:57:10.332Z,75.70
2019-01-19T05:59:40.381Z,75.65
2019-01-19T06:02:11.396Z,75.64
2019-01-19T06:04:41.068Z,75.73
2019-01-19T06:07:10.755Z,75.87
2019-01-19T06:09:40.429Z,76.14
2019-01-19T06:12:10.417Z,77.00
2019-01-19T06:14:41.928Z,77.00
2019-01-19T06:17:11.785Z,77.21
2019-01-19T06:19:41.979Z,77.29
2019-01-19T06:22:12.068Z,77.21
2019-01-19T06:24:41.988Z,77.11
2019-01-19T06:27:11.818Z,77.06
2019-01-19T06:29:41.663Z,77.11
2019-01-19T06:32:11.686Z,77.01
2019-01-19T06:34:41.400Z,76.85
2019-01-19T06:37:11.162Z,76.75
2019-01-19T06:39:41.070Z,76.56
2019-01-19T06:42:10.814Z,76.49
2019-01-19T06:44:40.593Z,76.31
2019-01-19T06:47:10.442Z,76.18
2019-01-19T06:49:40.350Z,76.09
2019-01-19T06:52:11.118Z,76.02
2019-01-19T06:54:45.975Z,75.90
2019-01-19T06:57:21.461Z,75.79
2019-01-19T06:59:51.393Z,75.70
2019-01-19T07:02:21.601Z,75.87
2019-01-19T07:04:51.524Z,76.21
2019-01-19T07:07:21.282Z,76.20
2019-01-19T07:09:51.052Z,76.01
2019-01-19T07:12:20.946Z,75.93
2019-01-19T07:14:56.193Z,75.81
2019-01-19T07:17:28.621Z,75.67
2019-01-19T07:19:58.359Z,75.58
2019-01-19T07:22:28.286Z,75.62
2019-01-19T07:24:58.201Z,75.92
2019-01-19T07:27:28.177Z,76.15
2019-01-19T07:29:58.019Z,76.27
2019-01-19T07:32:27.933Z,76.22
2019-01-19T07:34:57.857Z,76.08
2019-01-19T07:37:27.770Z,75.89
2019-01-19T07:39:57.445Z,75.75
2019-01-19T07:42:27.130Z,75.63
2019-01-19T07:44:56.799Z,75.62
2019-01-19T07:47:26.974Z,75.68
2019-01-19T07:49:56.709Z,76.05
2019-01-19T07:52:27.561Z,76.32
2019-01-19T07:54:58.576Z,76.33
2019-01-19T07:57:31.374Z,76.82
2019-01-19T07:59:59.589Z,76.80
2019-01-19T08:02:29.263Z,76.88
2019-01-19T08:04:58.946Z,76.98
2019-01-19T08:07:28.636Z,77.15
2019-01-19T08:09:58.481Z,77.07
2019-01-19T08:12:28.166Z,77.10
2019-01-19T08:14:58.002Z,77.25
2019-01-19T08:17:27.927Z,77.28
2019-01-19T08:19:57.839Z,77.35
2019-01-19T08:22:27.748Z,77.50
2019-01-19T08:24:57.655Z,77.64
2019-01-19T08:27:27.649Z,77.59
2019-01-19T08:29:57.322Z,77.63
2019-01-19T08:32:27.103Z,77.73
2019-01-19T08:34:57.003Z,77.83
2019-01-19T08:37:27.001Z,78.03
2019-01-19T08:39:56.839Z,78.14
2019-01-19T08:42:26.750Z,78.12
2019-01-19T08:44:57.042Z,78.05
2019-01-19T08:47:26.877Z,78.17
2019-01-19T08:49:56.789Z,78.25
2019-01-19T08:52:26.724Z,78.27
2019-01-19T08:54:57.229Z,78.24
2019-01-19T08:57:27.153Z,78.09
2019-01-19T08:59:56.826Z,78.04
2019-01-19T09:02:26.826Z,78.04
2019-01-19T09:04:56.664Z,77.78
2019-01-19T09:07:33.486Z,77.83
2019-01-19T09:09:57.944Z,77.90
2019-01-19T09:12:27.856Z,77.91
2019-01-19T09:14:57.769Z,77.83
2019-01-19T09:17:28.059Z,77.70
2019-01-19T09:19:57.924Z,77.79
2019-01-19T09:22:27.825Z,78.01
2019-01-19T09:24:57.872Z,77.73
2019-01-19T09:27:27.653Z,77.84
2019-01-19T09:29:57.554Z,77.81
2019-01-19T09:32:28.248Z,77.80
2019-01-19T09:34:58.380Z,77.53
2019-01-19T09:37:28.052Z,77.38
2019-01-19T09:39:57.906Z,77.33
2019-01-19T09:42:27.818Z,76.73
2019-01-19T09:44:57.648Z,76.75
2019-01-19T09:47:28.271Z,76.68
2019-01-19T09:50:12.921Z,76.28
2019-01-19T09:55:36.029Z,76.14
2019-01-19T09:58:06.016Z,75.89
2019-01-19T10:00:37.840Z,75.38
2019-01-19T10:03:07.608Z,75.42
2019-01-19T10:05:37.281Z,75.45
2019-01-19T10:08:06.948Z,75.65
2019-01-19T10:10:36.720Z,75.46
2019-01-19T10:13:06.469Z,74.79
2019-01-19T10:15:36.558Z,74.41
2019-01-19T10:18:06.505Z,74.14
2019-01-19T10:20:50.389Z,74.12
2019-01-19T10:23:20.106Z,73.58
2019-01-19T10:25:49.721Z,73.10
2019-01-19T10:28:19.624Z,73.53
2019-01-19T10:30:49.292Z,72.56
2019-01-19T10:33:24.194Z,72.38
2019-01-19T10:35:59.510Z,72.69
2019-01-19T10:38:30.597Z,72.70
2019-01-19T10:41:00.568Z,72.39
2019-01-19T10:43:30.244Z,72.63
2019-01-19T10:46:00.161Z,72.79
2019-01-19T10:48:30.026Z,72.46
2019-01-19T10:50:59.906Z,72.31
2019-01-19T10:53:29.836Z,71.83
2019-01-19T10:55:59.721Z,71.84
2019-01-19T10:58:29.381Z,71.38
2019-01-19T11:00:59.384Z,71.16
2019-01-19T11:03:28.997Z,70.79
2019-01-19T11:05:58.670Z,70.65
2019-01-19T11:08:29.012Z,70.75
2019-01-19T11:10:58.918Z,70.43
2019-01-19T11:13:28.579Z,69.97
2019-01-19T11:15:58.257Z,69.25
2019-01-19T11:18:28.036Z,69.83
2019-01-19T11:20:57.956Z,69.90
2019-01-19T11:23:27.700Z,69.79
2019-01-19T11:25:57.584Z,68.80
2019-01-19T11:28:27.257Z,67.85
2019-01-19T11:30:56.997Z,68.71
2019-01-19T11:33:26.660Z,68.42
2019-01-19T11:35:56.410Z,68.67
2019-01-19T11:38:26.499Z,68.44
2019-01-19T11:40:56.414Z,67.71
2019-01-19T11:43:26.342Z,67.26
2019-01-19T11:45:57.105Z,67.44
2019-01-19T11:48:27.012Z,67.60
2019-01-19T11:50:56.919Z,67.29
2019-01-19T11:53:27.153Z,66.99
2019-01-19T11:55:57.063Z,67.14
2019-01-19T11:58:26.980Z,66.82
2019-01-19T12:00:56.954Z,66.32
2019-01-19T12:03:26.770Z,65.89
2019-01-19T12:05:56.688Z,65.75
2019-01-19T12:08:26.619Z,65.44
2019-01-19T12:10:56.535Z,64.65
2019-01-19T12:13:26.695Z,65.31
2019-01-19T12:15:56.903Z,65.18
2019-01-19T12:18:26.583Z,65.29
2019-01-19T12:20:56.246Z,65.09
2019-01-19T12:23:25.899Z,64.44
2019-01-19T12:25:55.783Z,64.75
2019-01-19T12:28:25.618Z,64.86
2019-01-19T12:30:55.539Z,64.98
2019-01-19T12:33:25.530Z,63.45
2019-01-19T12:35:55.359Z,63.96
2019-01-19T12:38:26.885Z,64.03
2019-01-19T12:40:56.791Z,64.15
2019-01-19T12:43:26.453Z,64.11
2019-01-19T12:45:58.638Z,63.74
2019-01-19T12:48:28.577Z,63.66
2019-01-19T12:50:58.666Z,63.94
2019-01-19T12:53:28.528Z,64.03
2019-01-19T12:55:58.363Z,64.23
2019-01-19T12:58:28.106Z,63.85
2019-01-19T13:00:57.839Z,64.09
2019-01-19T13:03:27.586Z,64.05
2019-01-19T13:06:31.518Z,64.60
2019-01-19T13:09:04.043Z,63.83
2019-01-19T13:11:54.744Z,64.10
2019-01-19T13:14:25.091Z,64.00
2019-01-19T13:17:14.243Z,64.63
2019-01-19T13:20:12.066Z,64.35
2019-01-19T13:23:09.594Z,64.51
2019-01-19T13:26:20.388Z,64.12
2019-01-19T13:29:23.446Z,64.85
2019-01-19T13:32:10.079Z,65.20
2019-01-19T13:35:22.427Z,65.50
2019-01-19T13:38:29.617Z,65.53
2019-01-19T13:41:22.871Z,65.53
2019-01-19T13:44:12.644Z,66.29
2019-01-19T13:47:25.230Z,66.19
2019-01-19T13:50:26.385Z,66.20
2019-01-19T13:53:19.063Z,66.53
2019-01-19T13:56:19.194Z,66.70
2019-01-19T13:59:05.269Z,66.44
2019-01-19T14:02:00.290Z,66.41
2019-01-19T14:05:12.835Z,66.38
2019-01-19T14:08:15.534Z,66.21
2019-01-19T14:11:07.151Z,66.12
2019-01-19T14:14:01.946Z,66.28
2019-01-19T14:17:00.025Z,66.02
2019-01-19T14:20:23.005Z,65.61
2019-01-19T14:23:27.701Z,65.57
2019-01-19T14:26:29.355Z,66.01
2019-01-19T14:29:14.955Z,65.78
2019-01-19T14:32:04.149Z,66.05
2019-01-19T14:34:54.820Z,65.99
2019-01-19T14:38:07.062Z,66.20
2019-01-19T14:41:10.870Z,65.98
2019-01-19T14:44:30.482Z,66.13
2019-01-19T14:47:25.045Z,65.69
2019-01-19T14:50:27.627Z,65.75
2019-01-19T14:53:38.783Z,65.47
2019-01-19T14:56:26.227Z,65.67
2019-01-19T14:59:26.970Z,65.61
2019-01-19T15:02:44.399Z,65.28
2019-01-19T15:05:54.451Z,65.67
2019-01-19T15:08:35.434Z,65.71
2019-01-19T15:11:28.401Z,65.76
2019-01-19T15:14:33.870Z,65.89
2019-01-19T15:17:40.779Z,65.80
2019-01-19T15:20:32.248Z,65.74
2019-01-19T15:23:41.956Z,65.26
2019-01-19T15:30:00.016Z,65.64
2019-01-19T15:33:23.036Z,65.76
2019-01-19T15:36:24.616Z,65.80
2019-01-19T15:39:15.879Z,65.66
2019-01-19T15:42:13.437Z,65.71
2019-01-19T15:45:08.556Z,65.79
2019-01-19T15:48:03.304Z,65.88
2019-01-19T15:50:59.230Z,66.03
2019-01-19T15:53:38.273Z,65.84
2019-01-19T15:56:41.688Z,65.96
2019-01-19T15:59:57.867Z,66.10
2019-01-19T16:02:55.848Z,66.19
2019-01-19T16:05:51.305Z,66.51
2019-01-19T16:08:57.538Z,66.51
2019-01-19T16:11:52.172Z,66.45
2019-01-19T16:14:57.595Z,66.60
2019-01-19T16:17:50.479Z,66.70
2019-01-19T16:21:31.446Z,66.17
2019-01-19T16:24:38.361Z,66.60
2019-01-19T16:27:39.776Z,66.81
2019-01-19T16:30:39.732Z,67.04
2019-01-19T16:33:53.653Z,67.02
2019-01-19T16:37:16.960Z,67.25
2019-01-19T16:40:06.549Z,67.23
2019-01-19T16:43:09.459Z,67.03
2019-01-19T16:45:51.484Z,67.03
2019-01-19T16:48:40.159Z,67.49
2019-01-19T16:51:45.440Z,67.34
2019-01-19T16:54:53.967Z,67.42
2019-01-19T16:57:47.476Z,67.65
2019-01-19T17:01:03.677Z,67.79
2019-01-19T17:04:14.524Z,67.81
2019-01-19T17:07:27.105Z,67.85
2019-01-19T17:10:15.675Z,68.06
2019-01-19T17:13:11.951Z,68.12
2019-01-19T17:16:09.504Z,68.17
2019-01-19T17:18:58.315Z,68.20
2019-01-19T17:22:21.691Z,68.11
2019-01-19T17:25:36.954Z,68.08
2019-01-19T17:28:37.156Z,68.15
2019-01-19T17:31:24.604Z,68.06
2019-01-19T17:34:20.852Z,68.12
2019-01-19T17:37:42.076Z,68.12
2019-01-19T17:40:44.995Z,68.16
2019-01-19T17:43:35.883Z,68.08
2019-01-19T17:46:52.212Z,68.07
2019-01-19T17:50:03.112Z,68.03
2019-01-19T17:53:11.312Z,67.93
2019-01-19T17:56:29.528Z,67.99
2019-01-19T17:59:35.375Z,67.99
2019-01-19T18:02:24.097Z,68.11
2019-01-19T18:05:29.424Z,68.26
2019-01-19T18:08:21.285Z,68.32
2019-01-19T18:11:32.963Z,68.55
2019-01-19T18:14:28.146Z,68.75
2019-01-19T18:17:39.771Z,68.99
2019-01-19T18:20:22.864Z,69.27
2019-01-19T18:23:26.691Z,69.31
2019-01-19T18:26:34.580Z,69.40
2019-01-19T18:29:50.783Z,69.42
2019-01-19T18:32:29.211Z,69.49
2019-01-19T18:35:15.932Z,69.55
2019-01-19T18:38:14.917Z,69.66
2019-01-19T18:41:20.333Z,69.75
2019-01-19T18:44:33.520Z,69.83
2019-01-19T18:47:31.175Z,70.00
2019-01-19T18:50:29.174Z,69.97
2019-01-19T18:53:34.657Z,70.06
2019-01-19T18:56:50.164Z,70.20
2019-01-19T19:00:13.987Z,70.33
2019-01-19T19:03:26.028Z,70.30
2019-01-19T19:06:43.646Z,70.32
2019-01-19T19:09:39.101Z,70.23
2019-01-19T19:12:18.546Z,70.26
2019-01-19T19:15:44.893Z,70.37
2019-01-19T19:18:59.436Z,70.54
2019-01-19T19:22:07.210Z,70.38
2019-01-19T19:25:23.834Z,70.59
2019-01-19T19:28:45.401Z,70.53
2019-01-19T19:31:47.989Z,70.41
2019-01-19T19:35:08.513Z,70.46
2019-01-19T19:38:20.724Z,70.60
2019-01-19T19:41:20.354Z,70.59
2019-01-19T19:44:24.469Z,70.39
2019-01-19T19:47:26.829Z,70.35
2019-01-19T19:50:34.457Z,70.17
2019-01-19T19:53:05.188Z,70.17
2019-01-19T19:55:33.486Z,70.20
2019-01-19T19:58:03.357Z,70.20
2019-01-19T20:00:33.240Z,70.15
2019-01-19T20:03:03.478Z,70.04
2019-01-19T20:05:33.456Z,70.09
2019-01-19T20:08:04.080Z,69.86
2019-01-19T20:10:54.868Z,69.83
2019-01-19T20:13:24.939Z,69.82
2019-01-19T20:15:55.469Z,69.85
2019-01-19T20:18:25.444Z,69.81
2019-01-19T20:20:55.289Z,69.84
2019-01-19T20:23:25.195Z,69.71
2019-01-19T20:25:55.119Z,69.66
2019-01-19T20:28:25.020Z,69.65
2019-01-19T20:30:55.169Z,69.57
2019-01-19T20:33:24.890Z,69.49
2019-01-19T20:35:54.847Z,69.21
2019-01-19T20:38:25.453Z,69.23
2019-01-19T20:40:56.142Z,69.22
2019-01-19T20:43:26.055Z,68.76
2019-01-19T20:45:55.969Z,68.94
2019-01-19T20:48:26.155Z,69.00
2019-01-19T20:50:56.161Z,68.89
2019-01-19T20:53:26.010Z,68.63
2019-01-19T20:55:55.917Z,68.61
2019-01-19T20:58:26.832Z,68.61
2019-01-19T21:00:57.298Z,68.54
2019-01-19T21:03:27.209Z,68.35
2019-01-19T21:05:57.109Z,68.40
2019-01-19T21:08:27.029Z,68.33
2019-01-19T21:10:56.948Z,68.14
2019-01-19T21:13:26.853Z,68.08
2019-01-19T21:15:56.778Z,68.07
2019-01-19T21:18:27.233Z,68.01
2019-01-19T21:20:57.218Z,67.87
2019-01-19T21:23:27.116Z,67.90
2019-01-19T21:25:57.045Z,67.84
2019-01-19T21:28:26.946Z,67.69
2019-01-19T21:30:56.873Z,67.62
2019-01-19T21:33:26.850Z,67.51
2019-01-19T21:35:56.717Z,67.50
2019-01-19T21:38:27.218Z,67.25
2019-01-19T21:40:57.133Z,67.39
2019-01-19T21:43:27.047Z,67.42
2019-01-19T21:45:56.967Z,67.39
2019-01-19T21:48:26.872Z,67.53
2019-01-19T21:50:56.863Z,67.30
2019-01-19T21:53:26.711Z,67.49
2019-01-19T21:55:57.235Z,67.37
2019-01-19T21:58:27.134Z,67.29
2019-01-19T22:00:57.135Z,67.54
2019-01-19T22:03:26.973Z,67.50
2019-01-19T22:05:56.926Z,67.70
2019-01-19T22:08:27.715Z,67.80
2019-01-19T22:10:57.640Z,67.95
2019-01-19T22:13:27.846Z,67.90
2019-01-19T22:15:58.055Z,67.80
2019-01-19T22:18:27.980Z,67.76
2019-01-19T22:20:57.897Z,67.81
2019-01-19T22:23:27.809Z,67.73
2019-01-19T22:25:57.729Z,67.71
2019-01-19T22:28:27.635Z,67.71
2019-01-19T22:30:58.479Z,67.65
2019-01-19T22:33:28.393Z,67.78
2019-01-19T22:35:58.312Z,67.80
2019-01-19T22:38:28.224Z,67.93
2019-01-19T22:40:58.128Z,67.88
2019-01-19T22:43:30.846Z,67.89
2019-01-19T22:46:00.956Z,67.88
2019-01-19T22:48:30.969Z,67.81
2019-01-19T22:51:00.945Z,67.91
2019-01-19T22:53:30.619Z,67.98
2019-01-19T22:56:00.296Z,67.98
2019-01-19T22:58:30.376Z,67.81
2019-01-19T23:01:25.189Z,67.96
2019-01-19T23:03:55.077Z,67.82
2019-01-19T23:06:24.924Z,67.91
2019-01-19T23:08:54.907Z,68.11
2019-01-19T23:11:25.750Z,68.18
2019-01-19T23:13:55.588Z,68.07
2019-01-19T23:16:26.429Z,68.20
2019-01-19T23:18:56.412Z,68.20
2019-01-19T23:21:26.248Z,68.33
2019-01-19T23:23:56.151Z,68.31
2019-01-19T23:26:26.069Z,68.33
2019-01-19T23:28:55.985Z,68.34
2019-01-19T23:31:25.893Z,68.35
2019-01-19T23:33:55.819Z,68.33
2019-01-19T23:36:26.346Z,68.30
2019-01-19T23:38:56.262Z,68.29
2019-01-19T23:41:26.171Z,68.13
2019-01-19T23:43:56.919Z,68.14
2019-01-19T23:46:26.840Z,68.17
2019-01-19T23:48:57.199Z,68.34
2019-01-19T23:51:27.388Z,68.33
2019-01-19T23:53:58.502Z,68.31
2019-01-19T23:56:28.496Z,68.30
2019-01-19T23:58:58.330Z,68.39
